Time;durP1;ratioP1;P1;durP2;ratioP2;P2;SDS_P1;SDS_P2;PMS_P1;PMS_P2;Temp;Humidity;BMP_temperature;BMP_pressure;BME280_temperature;BME280_humidity;BME280_pressure;Samples;Min_cycle;Max_cycle;Signal;HPM_P1;HPM_P2
2022/04/04 00:00:47;;;;;;;8.53;5.37;;;;;;;-0.15;76.96;100026.88;5020951;28;20222;-73
2022/04/04 00:03:13;;;;;;;7.87;6.87;;;;;;;-0.17;77.47;100025.19;5019815;28;20527;-73
2022/04/04 00:05:39;;;;;;;6.60;5.23;;;;;;;-0.27;77.84;100019.28;5019366;28;20378;-73
2022/04/04 00:08:06;;;;;;;7.40;5.20;;;;;;;-0.41;78.03;100027.22;5020732;28;20289;-74
2022/04/04 00:10:32;;;;;;;8.05;5.20;;;;;;;-0.53;78.37;100022.22;5020850;28;20605;-74
2022/04/04 00:12:58;;;;;;;6.47;5.33;;;;;;;-0.61;78.24;100021.44;5019594;28;20273;-74
2022/04/04 00:15:23;;;;;;;5.53;4.60;;;;;;;-0.71;78.63;100026.69;5019864;28;20238;-75
2022/04/04 00:17:49;;;;;;;5.73;4.07;;;;;;;-0.79;78.68;100028.50;5019347;28;20499;-74
2022/04/04 00:20:14;;;;;;;8.63;5.53;;;;;;;-0.80;78.84;100033.69;5020635;28;20283;-74
2022/04/04 00:22:41;;;;;;;7.33;6.20;;;;;;;-0.79;78.75;100030.22;5021356;28;20241;-73
2022/04/04 00:25:07;;;;;;;7.18;6.47;;;;;;;-0.77;78.67;100033.66;5022240;28;20659;-73
2022/04/04 00:27:33;;;;;;;6.90;5.15;;;;;;;-0.75;78.49;100026.75;5021892;28;20682;-73
2022/04/04 00:29:58;;;;;;;7.93;5.63;;;;;;;-0.72;78.40;100024.16;5020810;28;20205;-73
2022/04/04 00:32:24;;;;;;;9.25;6.60;;;;;;;-0.68;78.33;100018.06;5021248;28;20973;-73
2022/04/04 00:34:49;;;;;;;8.30;6.07;;;;;;;-0.67;78.63;100018.06;5020898;28;20237;-73
2022/04/04 00:37:15;;;;;;;8.83;7.07;;;;;;;-0.64;78.57;100019.75;5020747;28;20623;-74
2022/04/04 00:39:41;;;;;;;7.20;5.30;;;;;;;-0.64;78.30;100024.06;5020070;28;20460;-73
2022/04/04 00:42:07;;;;;;;5.60;4.87;;;;;;;-0.64;78.28;100024.06;5019764;28;20625;-73
2022/04/04 00:44:32;;;;;;;7.40;5.23;;;;;;;-0.64;78.24;100027.50;5019893;28;20883;-73
2022/04/04 00:46:58;;;;;;;7.23;5.13;;;;;;;-0.69;78.10;100027.53;5019824;28;20911;-73
2022/04/04 00:49:24;;;;;;;9.03;5.90;;;;;;;-0.73;78.34;100027.56;5019781;28;20484;-73
2022/04/04 00:51:50;;;;;;;6.33;5.40;;;;;;;-0.75;78.44;100026.75;5019276;28;20492;-73
2022/04/04 00:54:15;;;;;;;6.17;4.80;;;;;;;-0.78;78.65;100027.66;5021167;28;20469;-75
2022/04/04 00:56:42;;;;;;;6.07;4.85;;;;;;;-0.77;78.61;100018.19;5020806;28;20214;-73
2022/04/04 00:59:13;;;;;;;5.95;4.88;;;;;;;-0.80;78.30;100013.06;5020219;28;20260;-73
2022/04/04 01:01:41;;;;;;;7.65;5.35;;;;;;;-0.81;78.27;100009.63;5019611;28;20465;-73
2022/04/04 01:04:08;;;;;;;4.90;4.40;;;;;;;-0.83;78.29;100001.03;5019456;28;20241;-73
2022/04/04 01:06:35;;;;;;;5.57;3.10;;;;;;;-0.83;78.18;100007.94;5020103;28;20241;-73
2022/04/04 01:09:02;;;;;;;3.65;3.35;;;;;;;-0.84;78.33;100011.38;5022335;28;20214;-74
2022/04/04 01:11:28;;;;;;;4.05;3.13;;;;;;;-0.83;78.04;100007.94;5023671;28;20308;-74
2022/04/04 01:13:53;;;;;;;4.03;3.63;;;;;;;-0.84;77.83;100007.06;5023515;28;20267;-74
2022/04/04 01:16:19;;;;;;;5.50;3.83;;;;;;;-0.85;77.71;100007.09;5023403;28;20206;-74
2022/04/04 01:18:44;;;;;;;6.70;4.37;;;;;;;-0.86;77.54;100011.41;5023552;28;20725;-74
2022/04/04 01:21:10;;;;;;;4.60;3.70;;;;;;;-0.88;77.55;100014.88;5021931;28;20646;-74
2022/04/04 01:23:41;;;;;;;4.27;3.10;;;;;;;-0.89;77.27;100011.44;5022388;28;20595;-74
2022/04/04 01:26:13;;;;;;;4.70;3.15;;;;;;;-0.92;77.28;100014.03;5021892;28;20494;-74
2022/04/04 01:28:39;;;;;;;6.10;3.58;;;;;;;-0.96;77.36;99999.47;5022419;28;20228;-74
2022/04/04 01:31:05;;;;;;;6.03;3.08;;;;;;;-0.93;77.44;100000.28;5023319;28;20283;-74
2022/04/04 01:33:31;;;;;;;5.00;3.47;;;;;;;-0.91;76.99;100002.84;5038322;28;20666;-74
2022/04/04 01:35:57;;;;;;;4.75;3.47;;;;;;;-0.90;77.26;100007.13;5022788;28;20244;-74
2022/04/04 01:38:24;;;;;;;5.78;3.10;;;;;;;-0.92;76.98;100014.03;5021570;28;20321;-74
2022/04/04 01:40:50;;;;;;;4.25;3.65;;;;;;;-0.93;76.87;100005.44;5022104;28;20249;-74
2022/04/04 01:43:16;;;;;;;3.93;3.47;;;;;;;-0.92;76.95;100002.00;5021417;28;20217;-73
2022/04/04 01:48:25;;;;;;;5.45;3.17;;;;;;;-0.97;76.72;100000.34;5021869;28;20217;-74
2022/04/04 01:50:50;;;;;;;4.43;3.73;;;;;;;-0.99;76.57;100008.09;5022287;28;20214;-74
2022/04/04 01:53:29;;;;;;;4.13;3.13;;;;;;;-1.00;76.60;100011.56;5021547;28;20324;-74
2022/04/04 01:56:00;;;;;;;6.55;3.10;;;;;;;-0.99;76.74;100017.56;5023082;28;20699;-73
2022/04/04 01:58:26;;;;;;;4.18;3.05;;;;;;;-1.00;76.82;100008.09;5023139;28;20601;-73
2022/04/04 02:00:56;;;;;;;5.28;3.35;;;;;;;-1.01;76.93;99998.66;5022035;28;20696;-73
2022/04/04 02:03:21;;;;;;;6.50;4.70;;;;;;;-0.97;77.06;99997.78;5020110;28;20521;-74
2022/04/04 02:05:47;;;;;;;4.83;4.27;;;;;;;-0.98;77.00;100001.19;5022218;28;20869;-74
2022/04/04 02:08:12;;;;;;;4.30;3.90;;;;;;;-0.98;77.14;99998.63;5022406;28;20210;-74
2022/04/04 02:10:38;;;;;;;4.50;3.40;;;;;;;-0.98;76.86;99996.03;5022274;28;20213;-74
2022/04/04 02:13:03;;;;;;;5.10;3.70;;;;;;;-1.03;77.10;99992.66;5023154;28;21273;-74
2022/04/04 02:15:29;;;;;;;5.30;3.20;;;;;;;-1.08;77.24;99994.44;5021313;28;20241;-74
2022/04/04 02:17:54;;;;;;;4.27;3.23;;;;;;;-1.11;77.08;99985.00;5020259;28;20763;-74
2022/04/04 02:20:20;;;;;;;4.10;3.30;;;;;;;-1.13;77.08;99981.59;5021040;28;20235;-74
2022/04/04 02:22:45;;;;;;;7.40;3.60;;;;;;;-1.15;77.20;99979.03;5021364;28;20599;-74
2022/04/04 02:25:12;;;;;;;4.10;3.70;;;;;;;-1.14;77.12;99977.28;5020122;28;20238;-74
2022/04/04 02:27:38;;;;;;;6.07;3.55;;;;;;;-1.13;77.30;99974.72;5020086;28;20622;-74
2022/04/04 02:30:03;;;;;;;4.47;3.33;;;;;;;-1.14;77.05;99972.13;5020220;28;20209;-73
2022/04/04 02:32:29;;;;;;;7.53;5.70;;;;;;;-1.18;77.28;99970.47;5019856;28;21260;-74
2022/04/04 02:34:54;;;;;;;8.87;4.50;;;;;;;-1.25;77.56;99979.13;5019553;28;20236;-74
2022/04/04 02:37:19;;;;;;;5.83;3.97;;;;;;;-1.31;77.81;99974.03;5020454;28;20210;-74
2022/04/04 02:39:45;;;;;;;6.03;3.70;;;;;;;-1.36;78.02;99971.50;5020596;28;20210;-74
2022/04/04 02:42:11;;;;;;;5.53;3.50;;;;;;;-1.39;77.75;99974.09;5019944;28;20742;-74
2022/04/04 02:44:36;;;;;;;8.80;4.67;;;;;;;-1.41;77.95;99971.53;5020728;28;20265;-74
2022/04/04 02:47:02;;;;;;;4.93;3.70;;;;;;;-1.40;77.65;99975.00;5020053;28;20774;-74
2022/04/04 02:49:30;;;;;;;5.73;4.47;;;;;;;-1.40;77.77;99975.00;5020230;28;20590;-74
2022/04/04 02:51:57;;;;;;;6.53;5.30;;;;;;;-1.41;77.59;99981.00;5020187;28;20683;-74
2022/04/04 02:54:23;;;;;;;7.03;4.32;;;;;;;-1.40;77.96;99985.28;5020285;28;20418;-74
2022/04/04 02:56:49;;;;;;;5.18;4.30;;;;;;;-1.41;77.85;99986.16;5020400;28;20243;-74
2022/04/04 02:59:15;;;;;;;5.40;4.00;;;;;;;-1.39;77.86;99984.41;5020006;28;20649;-74
2022/04/04 03:01:48;;;;;;;4.20;3.80;;;;;;;-1.42;78.01;99972.41;5019913;28;20607;-74
2022/04/04 03:04:14;;;;;;;6.50;5.07;;;;;;;-1.43;78.01;99980.16;5018790;28;21055;-74
2022/04/04 03:06:39;;;;;;;4.95;3.63;;;;;;;-1.43;77.90;99975.00;5020629;28;20213;-74
2022/04/04 03:09:05;;;;;;;6.13;4.43;;;;;;;-1.45;77.99;99977.59;5018682;28;20582;-73
2022/04/04 03:11:30;;;;;;;5.20;4.20;;;;;;;-1.45;78.07;99971.59;5019218;28;20452;-73
2022/04/04 03:13:56;;;;;;;6.40;5.00;;;;;;;-1.48;78.06;99969.91;5019066;28;20288;-73
2022/04/04 03:16:21;;;;;;;7.30;5.57;;;;;;;-1.48;78.19;99976.78;5020023;28;20213;-74
2022/04/04 03:18:47;;;;;;;6.30;3.83;;;;;;;-1.49;78.00;99964.75;5018906;28;20202;-73
2022/04/04 03:21:13;;;;;;;6.43;4.10;;;;;;;-1.51;78.23;99969.94;5019833;28;20650;-75
2022/04/04 03:23:39;;;;;;;4.22;3.58;;;;;;;-1.56;78.13;99969.13;5019344;28;20245;-74
2022/04/04 03:26:06;;;;;;;3.83;3.53;;;;;;;-1.59;78.23;99964.84;5019098;28;20987;-74
2022/04/04 03:28:32;;;;;;;7.28;4.35;;;;;;;-1.60;78.13;99970.84;5019573;28;20454;-75
2022/04/04 03:30:57;;;;;;;5.33;3.83;;;;;;;-1.59;78.28;99974.28;5018308;28;20606;-74
2022/04/04 03:33:24;;;;;;;3.50;2.93;;;;;;;-1.59;77.79;99975.16;5019387;28;21457;-74
2022/04/04 03:35:50;;;;;;;7.43;3.67;;;;;;;-1.59;78.08;99969.16;5019341;28;20284;-74
2022/04/04 03:38:15;;;;;;;6.03;3.37;;;;;;;-1.58;78.01;99969.13;5021528;28;20291;-74
2022/04/04 03:40:42;;;;;;;4.60;3.60;;;;;;;-1.63;78.05;99973.44;5022043;28;21008;-74
2022/04/04 03:43:08;;;;;;;8.98;4.40;;;;;;;-1.68;77.87;99974.34;5020596;28;20636;-74
2022/04/04 03:45:33;;;;;;;5.72;4.03;;;;;;;-1.77;78.43;99964.97;5021918;28;20761;-74
2022/04/04 03:47:59;;;;;;;7.67;4.80;;;;;;;-1.80;78.24;99971.00;5020339;28;20301;-74
2022/04/04 03:50:27;;;;;;;3.50;3.20;;;;;;;-1.82;78.32;99971.88;5020134;28;20248;-74
2022/04/04 03:52:53;;;;;;;8.80;5.25;;;;;;;-1.81;78.30;99969.31;5020354;28;20246;-74
2022/04/04 03:55:21;;;;;;;8.98;3.92;;;;;;;-1.81;78.06;99959.00;5019956;28;20230;-74
2022/04/04 03:57:48;;;;;;;4.55;3.30;;;;;;;-1.80;78.32;99970.16;5019922;28;20385;-74
2022/04/04 04:00:14;;;;;;;6.25;3.85;;;;;;;-1.77;78.41;99971.84;5020499;28;20572;-74
2022/04/04 04:02:40;;;;;;;4.00;3.42;;;;;;;-1.79;78.31;99971.84;5020111;28;20351;-74
2022/04/04 04:05:06;;;;;;;6.85;4.28;;;;;;;-1.79;77.97;99966.72;5020493;28;20237;-74
2022/04/04 04:07:32;;;;;;;6.47;3.70;;;;;;;-1.80;77.97;99970.16;5021501;28;20201;-73
2022/04/04 04:09:58;;;;;;;5.80;3.57;;;;;;;-1.82;78.29;99969.31;5019514;28;20462;-73
2022/04/04 04:12:23;;;;;;;6.07;4.33;;;;;;;-1.84;78.11;99977.03;5020948;28;20688;-73
2022/04/04 04:14:51;;;;;;;5.27;3.73;;;;;;;-1.87;78.32;99968.50;5019818;28;20592;-73
2022/04/04 04:17:18;;;;;;;5.10;3.47;;;;;;;-1.89;78.11;99967.63;5018899;28;20214;-73
2022/04/04 04:22:30;;;;;;;6.05;4.43;;;;;;;-1.90;78.10;99968.50;5019989;28;20214;-73
2022/04/04 04:24:55;;;;;;;8.10;5.70;;;;;;;-1.91;78.31;99971.97;5020360;28;20283;-73
2022/04/04 04:27:21;;;;;;;8.60;4.20;;;;;;;-1.91;78.15;99980.53;5020249;28;20478;-73
2022/04/04 04:29:46;;;;;;;10.00;5.30;;;;;;;-1.92;77.91;99983.97;5019977;28;20705;-73
2022/04/04 04:32:13;;;;;;;6.50;4.53;;;;;;;-1.93;78.25;99981.41;5018848;28;21194;-73
2022/04/04 04:34:39;;;;;;;4.47;3.85;;;;;;;-1.96;78.26;99982.28;5019575;28;20472;-73
2022/04/04 04:37:05;;;;;;;9.38;6.38;;;;;;;-1.94;78.68;99977.13;5018167;28;20463;-73
2022/04/04 04:39:30;;;;;;;7.40;5.07;;;;;;;-1.95;78.95;99985.72;5018560;28;20202;-73
2022/04/04 04:41:56;;;;;;;6.83;5.10;;;;;;;-1.98;78.76;99985.72;5009797;28;20487;-73
2022/04/04 04:44:22;;;;;;;8.80;5.90;;;;;;;-2.03;79.12;99983.19;5023807;28;20229;-75
2022/04/04 04:46:48;;;;;;;7.13;4.87;;;;;;;-2.09;79.07;99984.06;5025553;28;20206;-73
2022/04/04 04:49:15;;;;;;;15.20;5.30;;;;;;;-2.13;78.79;99984.09;5025726;28;20245;-74
2022/04/04 04:51:41;;;;;;;8.82;6.18;;;;;;;-2.17;78.80;99991.00;5024501;28;20205;-74
2022/04/04 04:54:08;;;;;;;9.40;5.50;;;;;;;-2.18;78.85;99989.28;5025188;28;20301;-74
2022/04/04 04:56:35;;;;;;;6.65;4.65;;;;;;;-2.19;78.70;99986.72;5027348;28;20699;-74
2022/04/04 04:59:01;;;;;;;5.28;4.75;;;;;;;-2.17;78.86;99987.56;5025659;28;20631;-74
2022/04/04 05:01:27;;;;;;;9.45;4.25;;;;;;;-2.18;78.60;99991.88;5022439;28;20732;-74
2022/04/04 05:03:52;;;;;;;8.90;5.40;;;;;;;-2.24;78.74;99984.19;5028984;28;20471;-74
2022/04/04 05:06:17;;;;;;;6.33;3.53;;;;;;;-2.30;78.79;99979.06;5032161;28;20587;-74
2022/04/04 05:08:43;;;;;;;6.90;3.70;;;;;;;-2.32;79.03;99980.78;5031944;28;20814;-75
2022/04/04 05:11:08;;;;;;;4.87;4.40;;;;;;;-2.36;78.89;99974.78;5035160;28;20206;-74
2022/04/04 05:13:34;;;;;;;7.40;3.60;;;;;;;-2.37;78.61;99982.53;5036612;28;20690;-74
2022/04/04 05:15:59;;;;;;;9.10;4.17;;;;;;;-2.36;78.96;99981.66;5036248;28;20319;-75
2022/04/04 05:18:25;;;;;;;5.80;3.67;;;;;;;-2.32;78.91;99978.19;5031398;28;20610;-74
2022/04/04 05:20:51;;;;;;;6.27;4.23;;;;;;;-2.31;78.78;99977.34;5033569;28;20205;-74
2022/04/04 05:23:16;;;;;;;4.93;3.73;;;;;;;-2.27;78.61;99977.34;5030036;28;20917;-74
2022/04/04 05:25:42;;;;;;;4.27;3.63;;;;;;;-2.19;78.29;99972.13;5031314;28;20230;-74
2022/04/04 05:28:08;;;;;;;7.60;5.57;;;;;;;-2.16;78.44;99972.13;5032529;28;20304;-75
2022/04/04 05:30:34;;;;;;;6.67;4.73;;;;;;;-2.13;78.24;99977.25;5031501;28;20445;-74
2022/04/04 05:33:00;;;;;;;8.57;6.63;;;;;;;-2.07;78.17;99978.94;5028647;28;20491;-75
2022/04/04 05:35:25;;;;;;;9.90;6.18;;;;;;;-2.06;78.39;99976.34;5023028;28;20226;-75
2022/04/04 05:37:54;;;;;;;8.23;6.30;;;;;;;-2.00;78.33;99980.56;5024547;28;20252;-74
2022/04/04 05:40:21;;;;;;;5.85;4.72;;;;;;;-1.94;78.39;99980.56;5023349;28;20232;-74
2022/04/04 05:42:47;;;;;;;7.85;5.03;;;;;;;-1.88;78.04;99979.66;5022963;28;20614;-75
2022/04/04 05:45:12;;;;;;;8.47;5.60;;;;;;;-1.84;78.02;99976.19;5022938;28;20531;-74
2022/04/04 05:47:37;;;;;;;8.37;6.17;;;;;;;-1.80;77.74;99978.72;5022389;28;20560;-75
2022/04/04 05:50:04;;;;;;;6.10;5.13;;;;;;;-1.74;77.33;99979.56;5021398;28;20749;-74
2022/04/04 05:52:30;;;;;;;7.30;5.40;;;;;;;-1.71;77.41;99975.22;5022926;28;20691;-74
2022/04/04 05:55:01;;;;;;;9.15;5.28;;;;;;;-1.71;77.18;99967.50;5020573;28;20341;-75
2022/04/04 05:57:28;;;;;;;9.35;6.75;;;;;;;-1.65;77.29;99982.06;5021083;28;20304;-74
2022/04/04 05:59:55;;;;;;;8.75;7.30;;;;;;;-1.50;77.04;99978.50;5019370;28;20592;-75
2022/04/04 06:02:22;;;;;;;7.13;5.35;;;;;;;-1.04;76.58;99975.50;5020156;28;20199;-75
2022/04/04 06:04:48;;;;;;;7.32;5.90;;;;;;;-0.43;75.50;99968.75;5020017;28;20790;-75
2022/04/04 06:07:14;;;;;;;5.75;4.50;;;;;;;-0.01;74.08;99973.31;5025263;28;20202;-75
2022/04/04 06:09:40;;;;;;;7.20;5.43;;;;;;;0.09;73.20;99971.47;5026935;28;20214;-75
2022/04/04 06:12:05;;;;;;;6.23;5.33;;;;;;;0.11;73.00;99969.72;5018430;28;20226;-75
2022/04/04 06:14:31;;;;;;;8.13;5.80;;;;;;;0.09;72.70;99966.28;5017980;28;20484;-75
2022/04/04 06:16:56;;;;;;;5.67;5.13;;;;;;;0.05;72.73;99971.53;5021039;28;20300;-75
2022/04/04 06:19:21;;;;;;;7.20;4.60;;;;;;;-0.02;72.84;99979.38;5029504;28;20374;-75
2022/04/04 06:21:47;;;;;;;6.30;4.87;;;;;;;0.17;72.83;99968.75;5028216;28;20581;-75
2022/04/04 06:24:13;;;;;;;8.10;5.53;;;;;;;0.68;72.12;99981.72;5024918;28;20441;-75
2022/04/04 06:26:39;;;;;;;4.90;4.50;;;;;;;1.26;70.85;99975.44;5027373;28;20468;-75
2022/04/04 06:29:09;;;;;;;5.38;4.63;;;;;;;1.71;68.99;99969.38;5025729;28;20560;-75
2022/04/04 06:31:36;;;;;;;8.02;4.80;;;;;;;1.76;67.82;99962.34;5026758;28;20575;-75
2022/04/04 06:34:04;;;;;;;5.03;4.53;;;;;;;1.61;67.93;99966.09;5027477;28;20222;-75
2022/04/04 06:36:30;;;;;;;6.57;5.70;;;;;;;1.36;68.14;99960.59;5023543;28;20213;-75
2022/04/04 06:38:56;;;;;;;4.70;3.92;;;;;;;1.17;68.75;99969.63;5025359;28;20210;-75
2022/04/04 06:41:21;;;;;;;5.73;4.60;;;;;;;0.99;68.72;99973.41;5024378;28;20263;-75
2022/04/04 06:43:47;;;;;;;7.67;5.40;;;;;;;0.72;69.27;99969.56;5024087;28;20455;-75
2022/04/04 06:46:13;;;;;;;5.57;4.20;;;;;;;0.59;69.49;99974.09;5025582;28;20225;-75
2022/04/04 06:48:39;;;;;;;6.30;4.60;;;;;;;0.51;69.67;99975.97;5026351;28;20205;-75
2022/04/04 06:51:05;;;;;;;8.70;6.95;;;;;;;0.44;69.99;99968.31;5022885;28;20582;-75
2022/04/04 06:53:31;;;;;;;8.63;6.00;;;;;;;0.46;70.07;99975.19;5022028;28;20312;-75
2022/04/04 06:55:57;;;;;;;8.97;5.63;;;;;;;0.51;69.93;99974.22;5023310;28;20416;-75
2022/04/04 06:58:22;;;;;;;6.33;5.73;;;;;;;0.55;69.82;99973.31;5024597;28;20214;-75
2022/04/04 07:00:48;;;;;;;5.57;5.07;;;;;;;0.57;69.75;99974.13;5023608;28;20301;-75
2022/04/04 07:03:13;;;;;;;6.53;5.80;;;;;;;0.61;69.89;99970.59;5024184;28;20190;-75
2022/04/04 07:05:40;;;;;;;7.40;5.40;;;;;;;0.63;70.03;99971.44;5023175;28;20278;-75
2022/04/04 07:08:06;;;;;;;9.75;6.18;;;;;;;0.64;70.11;99967.97;5022249;28;20267;-75
2022/04/04 07:10:32;;;;;;;12.25;7.07;;;;;;;0.68;70.01;99967.94;5023173;28;20222;-75
2022/04/04 07:12:58;;;;;;;7.73;4.80;;;;;;;0.70;70.19;99969.59;5024571;28;20288;-75
2022/04/04 07:15:24;;;;;;;13.63;7.03;;;;;;;0.74;70.22;99963.50;5021902;28;21044;-76
2022/04/04 07:17:49;;;;;;;8.53;6.97;;;;;;;0.80;69.83;99962.53;5028352;28;20496;-76
2022/04/04 07:20:15;;;;;;;10.33;7.40;;;;;;;0.88;70.00;99961.50;5026400;28;20216;-76
2022/04/04 07:22:42;;;;;;;8.47;6.80;;;;;;;0.96;70.21;99965.69;5022555;28;20203;-76
2022/04/04 07:25:07;;;;;;;7.35;6.07;;;;;;;1.02;69.82;99962.97;5022255;28;20264;-76
2022/04/04 07:27:34;;;;;;;13.13;8.60;;;;;;;1.08;70.04;99961.16;5021977;28;20210;-77
2022/04/04 07:30:00;;;;;;;11.02;7.47;;;;;;;1.14;69.71;99957.59;5024317;28;20464;-76
2022/04/04 07:32:26;;;;;;;11.00;8.05;;;;;;;1.26;70.31;99954.75;5023952;28;20487;-76
2022/04/04 07:34:51;;;;;;;10.73;8.00;;;;;;;1.38;70.19;99950.19;5020960;28;20553;-76
2022/04/04 07:37:17;;;;;;;10.30;7.73;;;;;;;1.60;70.34;99955.81;5021952;28;20212;-77
2022/04/04 07:39:42;;;;;;;9.57;7.03;;;;;;;2.22;69.21;99958.72;5020450;28;20479;-77
2022/04/04 07:42:08;;;;;;;13.00;9.23;;;;;;;3.12;67.19;99950.34;5019576;28;20237;-76
2022/04/04 07:44:34;;;;;;;11.67;8.40;;;;;;;4.01;65.00;99939.91;5021830;28;20390;-76
2022/04/04 07:47:00;;;;;;;10.45;8.30;;;;;;;4.79;62.62;99939.09;5021080;28;20210;-75
2022/04/04 07:49:26;;;;;;;12.80;8.53;;;;;;;5.04;61.40;99939.91;5019481;28;20253;-75
2022/04/04 07:51:53;;;;;;;16.17;8.43;;;;;;;5.34;60.33;99929.28;5020084;28;21011;-75
2022/04/04 07:54:18;;;;;;;11.70;9.02;;;;;;;5.59;59.83;99936.19;5020931;28;20237;-75
2022/04/04 07:56:44;;;;;;;10.80;8.90;;;;;;;5.73;59.02;99934.78;5021067;28;20357;-75
2022/04/04 07:59:10;;;;;;;12.20;9.47;;;;;;;6.09;58.44;99929.03;5019693;28;20205;-75
2022/04/04 08:01:36;;;;;;;9.60;7.65;;;;;;;6.65;56.96;99928.47;5019512;28;20198;-75
2022/04/04 08:04:01;;;;;;;12.90;10.00;;;;;;;7.23;55.10;99926.84;5020847;28;20572;-75
2022/04/04 08:06:27;;;;;;;14.80;9.20;;;;;;;7.34;54.87;99929.81;5019586;28;20264;-75
2022/04/04 08:08:52;;;;;;;14.23;10.10;;;;;;;7.67;54.05;99937.03;5019457;28;20596;-75
2022/04/04 08:11:17;;;;;;;10.43;9.17;;;;;;;8.10;53.18;99922.81;5019994;28;20444;-75
2022/04/04 08:13:44;;;;;;;9.93;8.93;;;;;;;8.70;51.74;99914.63;5018265;28;20238;-75
2022/04/04 08:16:10;;;;;;;12.35;9.05;;;;;;;9.07;50.49;99910.94;5018859;28;20305;-75
2022/04/04 08:18:35;;;;;;;12.43;11.13;;;;;;;9.50;49.42;99916.53;5020238;28;20210;-75
2022/04/04 08:21:01;;;;;;;12.43;11.07;;;;;;;9.36;48.47;99908.53;5018405;28;20820;-75
2022/04/04 08:23:29;;;;;;;16.33;9.20;;;;;;;9.26;49.04;99907.34;5020602;28;20646;-75
2022/04/04 08:25:57;;;;;;;11.45;9.50;;;;;;;9.56;48.24;99906.59;5020420;28;20232;-75
2022/04/04 08:28:22;;;;;;;15.23;11.35;;;;;;;9.82;47.16;99902.56;5018941;28;20213;-75
2022/04/04 08:30:50;;;;;;;14.83;10.77;;;;;;;9.79;46.97;99898.31;5019340;28;20386;-75
2022/04/04 08:33:16;;;;;;;16.08;12.32;;;;;;;10.08;45.66;99901.94;5019530;28;20858;-75
2022/04/04 08:35:41;;;;;;;13.27;10.57;;;;;;;9.81;46.41;99893.00;5019667;28;20238;-76
2022/04/04 08:38:06;;;;;;;14.30;10.87;;;;;;;9.90;46.11;99898.56;5021844;28;20487;-76
2022/04/04 08:40:32;;;;;;;13.67;8.90;;;;;;;9.61;45.89;99901.97;5020145;28;21099;-76
2022/04/04 08:42:59;;;;;;;11.70;9.50;;;;;;;9.68;45.71;99896.28;5021236;28;20575;-76
2022/04/04 08:45:25;;;;;;;12.00;9.05;;;;;;;9.82;45.02;99884.19;5020421;28;20234;-76
2022/04/04 08:47:51;;;;;;;11.93;8.63;;;;;;;9.79;44.36;99893.06;5020632;28;20398;-76
2022/04/04 08:50:18;;;;;;;12.67;8.83;;;;;;;9.82;44.28;99879.78;5021506;28;20234;-76
2022/04/04 08:52:45;;;;;;;11.15;8.02;;;;;;;10.00;43.54;99882.31;5020435;28;20499;-76
2022/04/04 08:55:13;;;;;;;10.90;8.35;;;;;;;9.98;42.63;99870.09;5020388;28;20312;-76
2022/04/04 08:57:38;;;;;;;9.63;7.85;;;;;;;9.79;42.74;99868.63;5021673;28;20268;-76
2022/04/04 09:00:05;;;;;;;14.07;9.50;;;;;;;9.49;43.26;99872.84;5022818;28;20210;-76
2022/04/04 09:02:30;;;;;;;13.00;10.30;;;;;;;9.43;43.85;99875.81;5020868;28;20847;-76
2022/04/04 09:05:05;;;;;;;13.83;10.00;;;;;;;9.32;44.28;99862.47;5020477;28;20290;-76
2022/04/04 09:07:31;;;;;;;10.18;8.13;;;;;;;9.06;44.75;99856.84;5018923;28;20229;-76
2022/04/04 09:09:57;;;;;;;10.45;8.18;;;;;;;8.94;45.22;99852.25;5021242;28;20206;-76
2022/04/04 09:12:26;;;;;;;10.57;8.43;;;;;;;9.03;45.22;99851.75;5021806;28;20241;-76
2022/04/04 09:15:00;;;;;;;8.88;7.40;;;;;;;8.96;45.34;99842.53;5019354;28;20256;-76
2022/04/04 09:17:28;;;;;;;11.57;10.35;;;;;;;8.75;45.91;99844.53;5020821;28;20212;-73
2022/04/04 09:19:55;;;;;;;7.97;6.68;;;;;;;8.68;45.60;99851.00;5019812;28;20300;-73
2022/04/04 09:22:21;;;;;;;10.07;7.65;;;;;;;8.55;45.27;99844.69;5019829;28;20198;-73
2022/04/04 09:24:49;;;;;;;10.48;7.88;;;;;;;8.39;45.46;99839.41;5020391;28;20791;-73
2022/04/04 09:27:33;;;;;;;11.40;7.63;;;;;;;8.07;45.52;99840.97;5017707;28;20202;-74
2022/04/04 09:30:02;;;;;;;7.70;6.05;;;;;;;7.57;46.28;99831.22;5023310;28;20214;-73
2022/04/04 09:32:42;;;;;;;10.20;6.68;;;;;;;7.51;45.56;99833.22;5024206;28;20513;-73
2022/04/04 09:35:13;;;;;;;7.57;6.25;;;;;;;7.47;45.46;99838.66;5023220;28;20725;-73
2022/04/04 09:37:40;;;;;;;8.80;6.93;;;;;;;7.68;45.62;99829.78;5023511;28;20272;-73
2022/04/04 09:40:07;;;;;;;9.60;6.15;;;;;;;7.92;45.14;99826.91;5023002;28;20635;-73
2022/04/04 09:42:33;;;;;;;9.40;7.07;;;;;;;8.05;44.56;99828.00;5022324;28;20205;-72
2022/04/04 09:45:02;;;;;;;15.63;7.68;;;;;;;8.19;44.28;99824.69;5022165;28;20711;-73
2022/04/04 09:47:51;;;;;;;12.50;6.60;;;;;;;8.18;43.25;99820.34;5021071;28;20206;-73
2022/04/04 09:50:30;;;;;;;6.63;5.63;;;;;;;8.24;43.16;99808.75;5021715;28;21015;-73
2022/04/04 09:52:59;;;;;;;7.32;6.20;;;;;;;8.50;42.65;99813.50;5022570;28;20237;-72
2022/04/04 09:55:34;;;;;;;9.07;6.50;;;;;;;8.69;42.24;99809.94;5021970;28;20276;-73
2022/04/04 09:58:02;;;;;;;12.45;7.05;;;;;;;8.72;41.75;99804.53;5023014;28;20453;-73
2022/04/04 10:00:28;;;;;;;7.07;4.70;;;;;;;8.71;40.14;99797.63;5023077;28;20927;-73
2022/04/04 10:02:58;;;;;;;7.30;6.10;;;;;;;8.80;38.53;99804.97;5021217;28;20485;-73
2022/04/04 10:05:25;;;;;;;6.32;5.72;;;;;;;8.89;37.95;99798.44;5022145;28;20230;-76
2022/04/04 10:07:55;;;;;;;5.35;4.40;;;;;;;8.95;37.19;99798.94;5021327;28;20706;-74
2022/04/04 10:10:23;;;;;;;7.72;4.07;;;;;;;9.12;36.75;99791.91;5021962;28;20653;-74
2022/04/04 10:12:51;;;;;;;5.75;5.05;;;;;;;9.26;35.97;99785.00;5021639;28;20368;-72
2022/04/04 10:15:16;;;;;;;5.82;4.15;;;;;;;9.30;35.74;99780.44;5022194;28;20237;-73
2022/04/04 10:17:43;;;;;;;5.30;4.77;;;;;;;9.07;34.59;99761.59;5021965;28;20209;-73
2022/04/04 10:20:11;;;;;;;6.60;4.75;;;;;;;9.02;35.37;99773.25;5021401;28;20207;-72
2022/04/04 10:22:37;;;;;;;6.35;4.43;;;;;;;9.07;34.64;99766.84;5021644;28;20206;-74
2022/04/04 10:25:04;;;;;;;6.78;4.65;;;;;;;9.07;33.94;99756.34;5021435;28;20222;-74
2022/04/04 10:27:30;;;;;;;7.88;5.50;;;;;;;9.07;34.41;99758.97;5022666;28;20766;-71
2022/04/04 10:30:04;;;;;;;7.18;5.65;;;;;;;9.19;34.32;99751.34;5023994;28;20568;-73
2022/04/04 10:32:30;;;;;;;6.95;6.30;;;;;;;9.31;34.15;99750.66;5021638;28;20481;-71
2022/04/04 10:34:56;;;;;;;6.20;5.60;;;;;;;9.17;33.80;99755.84;5022294;28;20234;-74
2022/04/04 10:37:31;;;;;;;8.33;7.40;;;;;;;9.16;35.20;99743.66;5021535;28;20216;-71
2022/04/04 10:39:56;;;;;;;4.55;3.88;;;;;;;9.12;35.35;99737.72;5020358;28;20625;-74
2022/04/04 10:42:26;;;;;;;7.17;5.57;;;;;;;9.14;36.06;99737.66;5021621;28;20846;-72
2022/04/04 10:45:06;;;;;;;11.35;6.82;;;;;;;9.01;36.66;99743.56;5022311;28;20229;-72
2022/04/04 10:47:33;;;;;;;9.20;6.25;;;;;;;8.91;36.44;99729.31;5022983;28;20213;-71
2022/04/04 10:50:16;;;;;;;6.53;5.55;;;;;;;8.95;36.76;99717.72;5022426;28;20238;-73
2022/04/04 10:52:43;;;;;;;6.90;6.20;;;;;;;9.14;36.66;99732.41;5022872;28;20244;-71
2022/04/04 10:55:23;;;;;;;7.43;6.10;;;;;;;9.22;36.46;99715.31;5035365;28;20260;-72
2022/04/04 10:57:49;;;;;;;8.65;6.82;;;;;;;9.26;36.63;99724.72;5031772;28;20216;-72
2022/04/04 11:00:16;;;;;;;7.93;6.83;;;;;;;9.24;37.08;99715.25;5022242;28;20214;-75
2022/04/04 11:02:44;;;;;;;8.05;6.60;;;;;;;9.15;37.28;99713.13;5020730;28;20220;-75
2022/04/04 11:08:05;;;;;;;7.25;6.55;;;;;;;9.06;37.63;99710.09;5021820;28;20242;-73
2022/04/04 11:10:42;;;;;;;9.95;7.05;;;;;;;9.09;38.01;99717.78;5023369;28;20202;-73
2022/04/04 11:13:14;;;;;;;9.93;7.55;;;;;;;9.20;38.24;99711.94;5021737;28;20226;-73
2022/04/04 11:15:45;;;;;;;5.90;5.28;;;;;;;9.27;37.91;99700.19;5021435;28;20270;-74
2022/04/04 11:18:12;;;;;;;8.60;6.75;;;;;;;9.13;38.55;99697.50;5020905;28;20256;-74
2022/04/04 11:20:46;;;;;;;8.55;7.35;;;;;;;8.95;38.56;99696.75;5021335;28;20698;-74
2022/04/04 11:23:12;;;;;;;7.70;6.38;;;;;;;8.68;39.22;99698.28;5020222;28;20205;-74
2022/04/04 11:25:49;;;;;;;8.23;6.60;;;;;;;8.57;38.99;99685.78;5021150;28;20951;-72
2022/04/04 11:28:15;;;;;;;10.10;7.05;;;;;;;8.59;39.46;99692.63;5018866;28;20459;-74
2022/04/04 11:30:41;;;;;;;8.43;7.30;;;;;;;8.71;39.57;99692.88;5020398;28;20528;-73
2022/04/04 11:33:11;;;;;;;8.90;7.00;;;;;;;8.76;39.26;99681.22;5020334;28;20253;-73
2022/04/04 11:35:36;;;;;;;7.57;6.85;;;;;;;8.88;38.92;99674.44;5021173;28;20477;-74
2022/04/04 11:38:12;;;;;;;8.60;7.77;;;;;;;8.93;38.62;99666.34;5020225;28;20202;-73
2022/04/04 11:40:44;;;;;;;8.75;6.45;;;;;;;8.97;39.08;99660.84;5020667;28;20742;-73